Latest Weather Observations for Murrurundi Gap

IDN60801

Issued at 4:22 pm EDT Friday 16 November 2018 (issued every 10 minutes, with the page automatically refreshed every 10 minutes)

About weather observations | Map of weather stations | Latest weather observations for NSW | Other Formats
Station Details ID: 061392 Name: MURRURUNDI GAP AWS Lat: -31.74 Lon: 150.79 Height: 729.4 m
Data from the previous 72 hours. | See also: Recent months at Murrurundi Gap
Date/Time
EDT
Temp
°C
App
Temp
°C
Dew
Point
°C
Rel
Hum
%
Delta-T
°C
Wind Press
QNH
hPa
Press
MSL
hPa
Rain since
9am
mm
Dir  Spd
km/h
Gust
km/h
Spd
kts
Gust
kts
16/04:00pm 18.3 13.3 13.4 73 2.9 SSE 32 44 17 24 1017.3 1014.2 0.0
16/03:30pm 17.7 12.6 13.2 75 2.6 SSE 32 41 17 22 1017.3 1014.2 0.0
16/03:00pm 17.6 12.6 13.3 76 2.5 SSE 32 44 17 24 1017.7 1014.7 0.0
16/02:30pm 18.6 13.7 13.7 73 2.9 SSE 32 43 17 23 1018.0 1015.0 0.0
16/02:01pm 18.2 13.6 13.5 74 2.8 SSE 30 39 16 21 1018.3 1015.3 0.0
16/02:00pm 18.2 13.6 13.5 74 2.8 SSE 30 39 16 21 1018.4 1015.4 0.0
16/01:30pm 16.8 11.6 12.9 78 2.2 SSE 32 41 17 22 1018.7 1015.6 0.0
16/01:25pm 17.8 12.6 13.5 76 2.5 SSE 33 43 18 23 1018.7 1015.6 0.0
16/01:00pm 17.5 12.9 13.6 78 2.3 SE 30 41 16 22 1018.9 1015.9 0.0
16/12:30pm 15.9 10.8 13.0 83 1.7 SSE 32 43 17 23 1019.3 1016.3 0.0
16/12:00pm 14.4 9.3 13.0 91 0.8 SSE 32 41 17 22 1019.6 1016.6 0.0
16/11:30am 14.1 9.0 13.0 93 0.6 SSE 32 39 17 21 1019.9 1016.9 0.0
16/11:00am 13.8 9.0 12.9 94 0.5 SSE 30 39 16 21 1020.0 1017.1 0.0
16/10:30am 13.3 8.1 12.8 97 0.3 SSE 32 37 17 20 1020.2 1017.2 0.0
16/10:00am 12.9 8.0 12.7 99 0.1 SSE 30 35 16 19 1020.0 1017.1 0.0
16/09:59am 12.8 7.9 12.6 99 0.1 SSE 30 35 16 19 1020.0 1017.1 0.0
16/09:30am 12.4 6.9 12.4 100 0.0 SE 33 39 18 21 1020.3 1017.3 0.0
16/09:00am 12.5 7.6 12.5 100 0.0 SE 30 39 16 21 1020.3 1017.3 0.0
16/08:30am 12.6 7.3 12.6 100 0.0 SE 32 39 17 21 1020.2 1017.2 0.0
16/08:00am 12.5 7.6 12.5 100 0.0 SSE 30 35 16 19 1020.0 1017.1 0.0
16/07:30am 12.4 7.5 12.4 100 0.0 SE 30 37 16 20 1019.9 1016.9 0.0
16/07:00am 12.2 7.2 12.2 100 0.0 SSE 30 37 16 20 1020.0 1017.1 0.0
16/06:30am 12.2 6.8 12.2 100 0.0 SSE 32 39 17 21 1020.0 1017.1 0.0
16/06:00am 12.2 6.6 12.2 100 0.0 SSE 33 41 18 22 1019.8 1016.8 0.0
16/05:30am 12.3 6.9 12.3 100 0.0 SSE 32 39 17 21 1019.7 1016.7 0.0
16/05:00am 12.2 6.6 12.2 100 0.0 SSE 33 43 18 23 1019.4 1016.4 0.0
16/04:30am 12.3 6.8 12.3 100 0.0 SSE 33 44 18 24 1019.3 1016.3 0.0
16/04:00am 12.4 6.5 12.4 100 0.0 SSE 35 44 19 24 1019.2 1016.2 0.0
16/03:30am 12.7 6.9 12.7 100 0.0 SSE 35 46 19 25 1019.4 1016.4 0.0
16/03:00am 12.8 7.0 12.8 100 0.0 SSE 35 46 19 25 1019.5 1016.5 0.0
16/02:30am 13.1 7.4 13.1 100 0.0 SSE 35 44 19 24 1019.5 1016.5 0.0
16/02:20am 13.3 8.1 13.3 100 0.0 SSE 33 43 18 23 1019.6 1016.6 0.0
16/02:00am 13.5 8.3 13.5 100 0.0 SSE 33 44 18 24 1019.8 1016.8 0.0
16/01:30am 13.9 8.5 13.9 100 0.0 SSE 35 44 19 24 1020.0 1017.1 0.0
16/01:00am 14.2 8.9 14.2 100 0.0 SE 35 44 19 24 1020.3 1017.3 0.0
16/12:30am 14.5 8.9 14.5 100 0.0 SSE 37 48 20 26 1020.6 1017.6 0.0
16/12:00am 14.6 9.1 14.6 100 0.0 SSE 37 46 20 25 1020.5 1017.5 0.0
 
Date/Time
EDT
Temp
°C
App
Temp
°C
Dew
Point
°C
Rel
Hum
%
Delta-T
°C
Wind Press
QNH
hPa
Press
MSL
hPa
Rain since
9am
mm
Dir  Spd
km/h
Gust
km/h
Spd
kts
Gust
kts
15/11:30pm 14.6 9.1 14.6 100 0.0 SE 37 48 20 26 1020.6 1017.6 0.0
15/11:00pm 14.6 9.1 14.6 100 0.0 SSE 37 46 20 25 1020.9 1017.9 0.0
15/10:30pm 14.9 9.1 14.9 100 0.0 SSE 39 50 21 27 1020.6 1017.6 0.0
15/10:02pm 15.1 9.3 14.9 99 0.1 SSE 39 48 21 26 1020.3 1017.3 0.0
15/10:00pm 15.2 9.4 15.0 99 0.1 SSE 39 48 21 26 1020.3 1017.3 0.0
15/09:30pm 15.6 9.8 15.0 96 0.4 SSE 39 48 21 26 1020.3 1017.3 0.0
15/09:00pm 16.2 11.3 15.2 94 0.6 SE 35 43 19 23 1019.9 1016.9 0.0
15/08:40pm 16.2 10.9 15.2 94 0.6 SE 37 44 20 24 1019.7 1016.7 0.0
15/08:30pm 16.2 10.9 15.2 94 0.6 SE 37 46 20 25 1019.6 1016.6 0.0
15/08:00pm 16.2 11.4 15.6 96 0.4 SE 35 50 19 27 1019.4 1016.4 0.0
15/07:56pm 16.1 10.5 15.5 96 0.4 SE 39 48 21 26 1019.4 1016.4 0.0
15/07:35pm 16.3 10.9 15.0 92 0.8 SSE 37 56 20 30 1019.3 1016.3 0.0
15/07:30pm 16.6 11.1 14.8 89 1.1 SSE 37 50 20 27 1019.4 1016.4 0.0
15/07:00pm 17.5 12.3 14.6 83 1.7 SE 35 54 19 29 1019.1 1016.1 0.0
15/06:35pm 20.2 15.3 15.2 73 3.0 SSE 35 54 19 29 1018.1 1015.1 0.0
15/06:30pm 20.7 15.6 14.8 69 3.6 SSE 35 52 19 28 1017.8 1014.8 0.0
15/06:11pm 23.0 18.7 12.0 50 6.4 SSW 26 41 14 22 1016.8 1013.8 0.0
15/06:00pm 25.9 22.3 8.4 33 9.7 NW 17 20 9 11 1016.8 1013.8 0.0
15/05:30pm 26.0 22.1 8.5 33 9.8 NW 19 28 10 15 1016.9 1013.9 0.0
15/05:00pm 26.2 21.7 8.7 33 9.8 NNW 22 32 12 17 1016.8 1013.8 0.0
15/04:30pm 27.1 22.7 9.0 32 10.3 NW 22 30 12 16 1016.9 1013.9 0.0
15/04:00pm 25.7 20.7 8.2 33 9.7 WNW 24 33 13 18 1017.1 1014.1 0.0
15/03:30pm 26.8 24.3 8.3 31 10.3 SE 11 19 6 10 1017.5 1014.4 0.0
15/03:00pm 26.8 24.7 8.3 31 10.3 WSW 9 17 5 9 1017.9 1014.9 0.0
15/02:30pm 26.3 24.1 7.8 31 10.2 N 9 15 5 8 1018.2 1015.2 0.0
15/02:00pm 25.9 24.4 9.3 35 9.4 NNW 7 11 4 6 1018.9 1015.9 0.0
15/01:30pm 24.6 22.2 8.5 36 8.9 SE 11 17 6 9 1019.2 1016.2 0.0
15/01:00pm 25.1 23.5 10.2 39 8.5 SSE 9 13 5 7 1019.4 1016.4 0.0
15/12:30pm 24.5 22.7 9.6 39 8.4 ENE 9 13 5 7 1019.6 1016.6 0.0
15/12:00pm 23.3 21.6 9.7 42 7.6 SE 9 15 5 8 1019.9 1016.9 0.0
15/11:30am 24.3 22.0 10.6 42 7.9 ESE 13 17 7 9 1020.0 1017.1 0.0
15/11:00am 25.7 24.7 10.3 38 8.8 ESE 6 9 3 5 1020.3 1017.3 0.0
15/10:32am 23.2 21.5 11.3 47 6.9 SW 11 17 6 9 1020.3 1017.3 0.0
15/10:30am 23.2 21.8 10.9 46 7.1 SW 9 15 5 8 1020.3 1017.3 0.0
15/10:08am 23.2 22.3 11.3 47 6.9 W 7 15 4 8 1020.3 1017.3 0.0
15/10:00am 23.8 22.1 11.2 45 7.3 WNW 11 19 6 10 1020.4 1017.4 0.0
15/09:30am 22.0 20.9 12.0 53 5.8 WNW 9 13 5 7 1020.5 1017.5 0.0
15/09:00am 22.0 19.2 11.4 51 6.1 NW 17 22 9 12 1020.3 1017.3 0.0
15/08:30am 21.7 19.3 11.4 52 5.9 NW 15 19 8 10 1020.2 1017.2 0.0
15/08:00am 21.2 19.7 11.8 55 5.4 NW 11 13 6 7 1019.8 1016.8 0.0
15/07:30am 20.1 18.8 11.1 56 5.1 NW 9 11 5 6 1019.5 1016.5 0.0
15/07:00am 19.0 17.5 10.6 58 4.7 NW 9 11 5 6 1019.3 1016.3 0.0
15/06:30am 18.5 17.4 10.6 60 4.4 NW 7 9 4 5 1019.1 1016.1 0.0
15/06:00am 18.1 16.6 10.5 61 4.2 NW 9 11 5 6 1018.7 1015.6 0.0
15/05:30am 17.8 16.3 10.4 62 4.1 WNW 9 11 5 6 1018.3 1015.3 0.0
15/05:00am 17.9 16.0 10.5 62 4.1 NW 11 13 6 7 1018.1 1015.1 0.0
15/04:30am 17.7 15.4 10.6 63 3.9 NW 13 15 7 8 1018.0 1015.0 0.0
15/04:00am 17.9 15.6 10.5 62 4.1 NW 13 15 7 8 1017.9 1014.9 0.0
15/03:30am 17.8 15.6 10.7 63 4.0 WNW 13 15 7 8 1017.9 1014.9 0.0
15/03:00am 18.1 15.9 10.7 62 4.1 WNW 13 15 7 8 1018.0 1015.0 0.0
15/02:30am 18.1 16.3 11.0 63 4.0 NW 11 13 6 7 1018.3 1015.3 0.0
15/02:00am 17.6 16.2 10.9 65 3.7 NW 9 9 5 5 1018.5 1015.5 0.0
15/01:30am 17.3 16.3 11.1 67 3.5 NW 7 9 4 5 1019.0 1016.0 0.0
15/01:00am 17.6 15.9 11.2 66 3.6 NW 11 11 6 6 1019.1 1016.1 0.0
15/12:30am 17.3 15.6 11.1 67 3.5 NW 11 13 6 7 1019.4 1016.4 0.0
15/12:00am 16.9 14.8 11.2 69 3.2 NW 13 15 7 8 1019.5 1016.5 0.0
 
Date/Time
EDT
Temp
°C
App
Temp
°C
Dew
Point
°C
Rel
Hum
%
Delta-T
°C
Wind Press
QNH
hPa
Press
MSL
hPa
Rain since
9am
mm
Dir  Spd
km/h
Gust
km/h
Spd
kts
Gust
kts
14/11:30pm 17.3 15.6 11.1 67 3.5 NW 11 15 6 8 1019.4 1016.4 0.0
14/11:00pm 17.4 15.4 11.4 68 3.4 NW 13 15 7 8 1019.4 1016.4 0.0
14/10:30pm 17.3 14.5 11.3 68 3.4 NW 17 17 9 9 1019.4 1016.4 0.0
14/10:00pm 18.1 15.0 11.7 66 3.6 NW 19 20 10 11 1019.5 1016.5 0.0
14/09:30pm 18.4 15.6 11.5 64 3.9 NW 17 20 9 11 1019.4 1016.4 0.0
14/09:00pm 19.3 16.9 11.3 60 4.5 NW 15 20 8 11 1019.2 1016.2 0.0
14/08:30pm 19.7 16.9 11.2 58 4.8 NNW 17 20 9 11 1018.9 1015.9 0.0
14/08:00pm 19.9 17.0 11.1 57 5.0 NNW 17 19 9 10 1018.8 1015.8 0.0
14/07:30pm 20.0 16.6 11.2 57 5.0 NW 20 26 11 14 1018.5 1015.5 0.0
14/07:00pm 20.0 16.6 11.2 57 5.0 NW 20 24 11 13 1018.2 1015.2 0.0
14/06:30pm 20.0 16.7 11.5 58 4.9 NW 20 26 11 14 1018.1 1015.1 0.0
14/06:00pm 20.1 16.4 11.6 58 4.9 NW 22 28 12 15 1018.0 1015.0 0.0
14/05:30pm 20.4 17.1 11.6 57 5.0 NW 20 26 11 14 1018.1 1015.1 0.0
14/05:00pm 20.1 16.8 11.6 58 4.9 NNW 20 28 11 15 1018.1 1015.1 0.0
14/04:30pm 20.3 17.0 11.5 57 5.0 NW 20 26 11 14 1018.1 1015.1 0.0
14/04:00pm 20.2 17.7 11.1 56 5.2 NNW 15 19 8 10 1018.0 1015.0 0.0
14/03:30pm 20.1 17.4 11.6 58 4.9 NW 17 20 9 11 1018.1 1015.1 0.0
14/03:00pm 19.6 15.1 12.6 64 4.1 WNW 28 39 15 21 1018.3 1015.3 0.0
14/02:30pm 20.5 15.5 10.9 54 5.4 NW 28 35 15 19 1018.5 1015.5 0.0
14/02:00pm 20.6 14.1 10.4 52 5.7 NW 35 46 19 25 1018.5 1015.5 0.0
14/01:30pm 20.6 12.5 10.1 51 5.9 NW 43 54 23 29 1018.3 1015.3 0.0
14/01:00pm 21.2 13.9 10.1 49 6.2 NW 39 50 21 27 1018.3 1015.3 0.0
14/12:30pm 21.3 14.6 9.5 47 6.5 NW 35 43 19 23 1018.8 1015.8 0.0
14/12:00pm 20.7 13.0 8.7 46 6.5 NW 39 48 21 26 1018.8 1015.8 0.0
14/11:30am 21.2 14.0 9.1 46 6.7 NW 37 44 20 24 1019.1 1016.1 0.0
14/11:00am 20.7 13.4 8.7 46 6.5 WNW 37 44 20 24 1019.1 1016.1 0.0
14/10:30am 20.3 14.7 8.9 48 6.2 NW 28 33 15 18 1019.2 1016.2 0.0
14/10:00am 20.3 14.4 8.9 48 6.2 NW 30 35 16 19 1019.1 1016.1 0.0
14/09:30am 20.0 14.5 9.0 49 6.0 NW 28 33 15 18 1018.9 1015.9 0.0
14/09:00am 19.7 14.5 8.7 49 6.0 NW 26 35 14 19 1018.8 1015.8 0.0
14/08:30am 19.5 14.8 9.4 52 5.5 NNW 24 32 13 17 1018.7 1015.6 0.0
14/08:00am 19.0 13.9 9.2 53 5.3 NW 26 33 14 18 1018.1 1015.1 0.0
14/07:30am 18.6 14.6 9.1 54 5.2 NW 20 26 11 14 1017.8 1014.8 0.0
14/07:00am 18.4 14.4 9.2 55 5.0 NW 20 26 11 14 1017.5 1014.4 0.0
14/06:30am 18.1 14.1 9.2 56 4.8 NW 20 26 11 14 1017.4 1014.3 0.0
14/06:00am 17.9 14.0 9.3 57 4.7 NW 20 24 11 13 1017.0 1014.0 0.0
14/05:30am 17.4 13.3 8.8 57 4.6 NW 20 22 11 12 1016.8 1013.8 0.0
14/05:00am 18.2 14.1 8.7 54 5.1 NW 20 24 11 13 1016.5 1013.5 0.0
14/04:30am 18.6 14.5 8.6 52 5.4 NW 20 22 11 12 1016.2 1013.1 0.0
14/04:00am 19.3 14.4 8.6 50 5.8 NW 24 28 13 15 1016.0 1012.9 0.0
14/03:30am 19.4 15.2 8.4 49 5.9 NW 20 28 11 15 1016.1 1013.0 0.0
14/03:00am 19.9 15.9 8.3 47 6.2 NNW 19 26 10 14 1016.2 1013.1 0.0
14/02:30am 20.1 16.1 8.4 47 6.3 N 19 26 10 14 1016.3 1013.2 0.0
14/02:00am 20.1 16.1 8.4 47 6.3 N 19 28 10 15 1016.6 1013.6 0.0
14/01:30am 20.3 16.1 8.3 46 6.5 NNW 20 26 11 14 1016.9 1013.9 0.0
14/01:00am 21.1 15.3 8.0 43 7.1 NNE 28 35 15 19 1016.8 1013.8 0.0
14/12:58am 21.1 15.3 8.0 43 7.1 NNE 28 35 15 19 1016.8 1013.8 0.0
14/12:30am 20.5 19.5 5.7 38 7.6 CALM 0 6 0 3 1017.3 1014.2 0.0
14/12:00am 20.5 18.3 5.3 37 7.8 ESE 6 7 3 4 1017.5 1014.4 0.0
 
Date/Time
EDT
Temp
°C
App
Temp
°C
Dew
Point
°C
Rel
Hum
%
Delta-T
°C
Wind Press
QNH
hPa
Press
MSL
hPa
Rain since
9am
mm
Dir  Spd
km/h
Gust
km/h
Spd
kts
Gust
kts
13/11:30pm 19.4 15.5 3.6 35 7.8 ESE 13 17 7 9 1017.6 1014.6 0.0
13/11:00pm 20.0 15.6 2.8 32 8.3 ESE 15 17 8 9 1017.7 1014.7 0.0
13/10:30pm 19.9 15.4 2.3 31 8.5 ESE 15 19 8 10 1018.1 1015.1 0.0
13/10:00pm 20.0 15.1 1.9 30 8.6 SE 17 20 9 11 1018.2 1015.2 0.0
13/09:30pm 21.1 16.2 1.9 28 9.2 SE 17 22 9 12 1018.1 1015.1 0.0
13/09:00pm 21.1 16.0 0.9 26 9.5 SE 17 22 9 12 1018.0 1015.0 0.0
13/08:30pm 22.3 16.8 0.8 24 10.2 SSE 19 22 10 12 1017.8 1014.8 0.0
13/08:00pm 22.6 16.9 0.4 23 10.5 SSE 20 26 11 14 1017.5 1014.4 0.0
13/07:30pm 23.0 17.8 0.2 22 10.8 SSE 17 20 9 11 1017.3 1014.2 0.0
13/07:00pm 23.9 18.3 0.9 22 11.1 SE 20 26 11 14 1016.9 1013.9 0.0
13/06:30pm 24.7 19.6 0.9 21 11.5 SE 17 26 9 14 1016.7 1013.7 0.0
13/06:00pm 25.7 21.3 0.4 19 12.2 SE 13 19 7 10 1016.6 1013.6 0.0
13/05:30pm 26.0 22.0 0.6 19 12.4 SE 11 17 6 9 1016.7 1013.7 0.0
13/05:00pm 26.1 21.5 1.4 20 12.2 ESE 15 20 8 11 1016.6 1013.6 0.0
13/04:30pm 26.1 21.0 0.7 19 12.4 SE 17 24 9 13 1016.6 1013.6 0.0

Other Formats:

Comma delimited format used in spreadsheet applications
http://www.bom.gov.au/fwo/IDN60801/IDN60801.95747.axf

JavaScript Object Notation format (JSON) in row-major order
http://www.bom.gov.au/fwo/IDN60801/IDN60801.95747.json